createdAt,value
2019-05-19T00:00:46.822Z,28.03
2019-05-19T00:03:16.553Z,28.90
2019-05-19T00:05:46.031Z,28.43
2019-05-19T00:08:15.533Z,29.57
2019-05-19T00:10:45.001Z,29.40
2019-05-19T00:13:14.772Z,29.07
2019-05-19T00:15:44.594Z,29.37
2019-05-19T00:18:14.406Z,28.03
2019-05-19T00:20:44.208Z,29.67
2019-05-19T00:23:13.791Z,29.83
2019-05-19T00:25:43.651Z,27.60
2019-05-19T00:28:13.355Z,28.13
2019-05-19T00:30:42.805Z,27.83
2019-05-19T00:33:12.563Z,29.03
2019-05-19T00:35:42.026Z,28.00
2019-05-19T00:38:11.784Z,28.83
2019-05-19T00:40:41.269Z,27.53
2019-05-19T00:43:11.024Z,29.70
2019-05-19T00:45:40.580Z,26.63
2019-05-19T00:48:10.037Z,25.53
2019-05-19T00:50:39.865Z,26.53
2019-05-19T00:53:09.647Z,25.40
2019-05-19T00:55:39.858Z,27.47
2019-05-19T00:58:09.900Z,26.27
2019-05-19T01:00:39.631Z,24.67
2019-05-19T01:03:09.476Z,24.90
2019-05-19T01:05:38.885Z,24.70
2019-05-19T01:08:08.633Z,25.23
2019-05-19T01:10:38.106Z,24.17
2019-05-19T01:13:07.640Z,24.07
2019-05-19T01:15:37.361Z,24.50
2019-05-19T01:18:06.816Z,24.40
2019-05-19T01:20:36.268Z,25.70
2019-05-19T01:23:05.762Z,25.90
2019-05-19T01:25:35.229Z,24.20
2019-05-19T01:28:04.824Z,23.30
2019-05-19T01:30:34.697Z,24.13
2019-05-19T01:33:04.107Z,23.53
2019-05-19T01:35:33.576Z,24.97
2019-05-19T01:38:03.054Z,24.57
2019-05-19T01:40:32.430Z,23.30
2019-05-19T01:43:01.866Z,23.47
2019-05-19T01:45:31.601Z,24.37
2019-05-19T01:48:01.487Z,24.63
2019-05-19T01:50:30.924Z,22.20
2019-05-19T01:53:01.045Z,21.73
2019-05-19T01:55:30.569Z,22.17
2019-05-19T01:58:00.341Z,21.87
2019-05-19T02:00:29.837Z,21.57
2019-05-19T02:02:59.537Z,22.07
2019-05-19T02:05:28.973Z,21.90
2019-05-19T02:07:58.430Z,23.23
2019-05-19T02:10:27.934Z,21.07
2019-05-19T02:12:58.025Z,22.17
2019-05-19T02:15:27.505Z,22.13
2019-05-19T02:17:56.990Z,21.07
2019-05-19T02:20:33.477Z,20.17
2019-05-19T02:22:57.582Z,21.03
2019-05-19T02:25:27.336Z,20.87
2019-05-19T02:27:56.847Z,22.50
2019-05-19T02:30:26.344Z,20.80
2019-05-19T02:32:55.838Z,21.23
2019-05-19T02:35:25.298Z,21.70
2019-05-19T02:37:54.808Z,21.07
2019-05-19T02:40:24.695Z,20.93
2019-05-19T02:42:56.388Z,21.50
2019-05-19T02:45:28.782Z,20.97
2019-05-19T02:48:01.659Z,20.53
2019-05-19T02:50:32.022Z,20.93
2019-05-19T02:53:03.015Z,19.47
2019-05-19T02:55:32.991Z,21.37
2019-05-19T02:58:03.261Z,23.47
2019-05-19T03:00:38.190Z,23.83
2019-05-19T03:03:08.514Z,24.77
2019-05-19T03:05:38.446Z,23.13
2019-05-19T03:08:08.330Z,21.70
2019-05-19T03:10:38.511Z,22.37
2019-05-19T03:13:08.057Z,20.30
2019-05-19T03:15:37.847Z,22.33
2019-05-19T03:18:07.334Z,22.97
2019-05-19T03:20:37.180Z,22.30
2019-05-19T03:23:06.967Z,23.30
2019-05-19T03:25:36.437Z,23.63
2019-05-19T03:28:06.173Z,23.07
2019-05-19T03:31:00.818Z,22.47
2019-05-19T03:33:31.994Z,23.47
2019-05-19T03:36:01.771Z,23.80
2019-05-19T03:38:31.223Z,22.63
2019-05-19T03:41:00.754Z,22.40
2019-05-19T03:43:30.552Z,22.93
2019-05-19T03:46:00.785Z,22.07
2019-05-19T03:48:30.722Z,23.33
2019-05-19T03:51:00.223Z,24.87
2019-05-19T03:53:30.072Z,22.90
2019-05-19T03:55:59.521Z,24.20
2019-05-19T03:58:28.933Z,21.23
2019-05-19T04:00:58.718Z,22.60
2019-05-19T04:03:28.191Z,24.13
2019-05-19T04:05:58.076Z,21.83
2019-05-19T04:08:27.522Z,22.37
2019-05-19T04:10:56.990Z,22.50
2019-05-19T04:13:27.054Z,22.93
2019-05-19T04:15:56.919Z,23.07
2019-05-19T04:18:26.705Z,24.63
2019-05-19T04:20:56.865Z,23.10
2019-05-19T04:23:26.386Z,23.57
2019-05-19T04:25:56.106Z,25.57
2019-05-19T04:28:25.696Z,24.27
2019-05-19T04:30:55.130Z,22.60
2019-05-19T04:33:24.968Z,23.30
2019-05-19T04:35:57.409Z,24.00
2019-05-19T04:38:25.953Z,25.37
2019-05-19T04:40:55.703Z,24.13
2019-05-19T04:43:25.183Z,26.13
2019-05-19T04:45:54.827Z,25.83
2019-05-19T04:48:24.354Z,22.87
2019-05-19T04:50:53.926Z,22.17
2019-05-19T04:53:23.379Z,22.03
2019-05-19T04:55:52.870Z,22.27
2019-05-19T04:58:22.346Z,23.30
2019-05-19T05:00:52.488Z,24.30
2019-05-19T05:03:22.233Z,23.73
2019-05-19T05:05:51.726Z,23.87
2019-05-19T05:08:29.542Z,24.57
2019-05-19T05:10:53.205Z,22.93
2019-05-19T05:13:22.683Z,23.80
2019-05-19T05:15:52.162Z,24.03
2019-05-19T05:18:21.631Z,23.80
2019-05-19T05:20:51.478Z,21.63
2019-05-19T05:23:21.224Z,22.50
2019-05-19T05:25:50.693Z,23.07
2019-05-19T05:28:20.137Z,26.40
2019-05-19T05:30:49.590Z,24.13
2019-05-19T05:33:19.067Z,23.67
2019-05-19T05:35:48.845Z,23.07
2019-05-19T05:38:18.760Z,25.67
2019-05-19T05:40:48.570Z,24.37
2019-05-19T05:43:18.339Z,27.73
2019-05-19T05:45:47.806Z,27.17
2019-05-19T05:48:17.481Z,27.97
2019-05-19T05:50:47.488Z,26.97
2019-05-19T05:53:17.333Z,27.47
2019-05-19T05:55:46.729Z,27.00
2019-05-19T05:58:16.219Z,27.53
2019-05-19T06:00:45.884Z,27.97
2019-05-19T06:03:15.383Z,29.27
2019-05-19T06:05:44.899Z,28.13
2019-05-19T06:08:14.394Z,29.50
2019-05-19T06:10:44.288Z,27.37
2019-05-19T06:13:14.226Z,30.70
2019-05-19T06:15:44.090Z,32.67
2019-05-19T06:18:13.589Z,33.57
2019-05-19T06:20:43.324Z,33.03
2019-05-19T06:23:12.915Z,35.70
2019-05-19T06:25:42.499Z,32.40
2019-05-19T06:28:12.421Z,31.07
2019-05-19T06:30:42.393Z,34.17
2019-05-19T06:33:11.839Z,35.03
2019-05-19T06:35:41.689Z,35.37
2019-05-19T06:38:11.173Z,38.17
2019-05-19T06:40:40.699Z,37.70
2019-05-19T06:43:10.461Z,39.57
2019-05-19T06:45:40.624Z,38.07
2019-05-19T06:48:10.224Z,34.30
2019-05-19T06:50:40.926Z,31.30
2019-05-19T06:53:13.900Z,33.37
2019-05-19T06:55:42.136Z,35.00
2019-05-19T06:58:11.672Z,34.80
2019-05-19T07:00:41.557Z,33.00
2019-05-19T07:03:11.050Z,28.53
2019-05-19T07:05:40.529Z,30.03
2019-05-19T07:08:10.276Z,26.30
2019-05-19T07:10:39.748Z,25.53
2019-05-19T07:13:09.238Z,25.87
2019-05-19T07:15:38.706Z,23.60
2019-05-19T07:18:08.593Z,23.70
2019-05-19T07:20:38.045Z,24.13
2019-05-19T07:23:07.480Z,24.37
2019-05-19T07:25:36.957Z,27.17
2019-05-19T07:28:06.457Z,25.10
2019-05-19T07:30:36.039Z,22.63
2019-05-19T07:33:05.523Z,20.63
2019-05-19T07:35:35.000Z,20.27
2019-05-19T07:38:07.360Z,20.47
2019-05-19T07:40:36.281Z,20.90
2019-05-19T07:43:06.212Z,21.27
2019-05-19T07:45:36.048Z,20.27
2019-05-19T07:48:05.574Z,20.13
2019-05-19T07:50:38.007Z,20.03
2019-05-19T07:53:06.645Z,18.93
2019-05-19T07:55:36.173Z,19.93
2019-05-19T07:58:05.633Z,20.23
2019-05-19T08:00:35.244Z,19.90
2019-05-19T08:03:04.787Z,20.70
2019-05-19T08:05:35.259Z,18.10
2019-05-19T08:08:04.898Z,18.13
2019-05-19T08:10:34.688Z,19.40
2019-05-19T08:13:04.361Z,18.13
2019-05-19T08:15:33.909Z,17.60
2019-05-19T08:18:03.403Z,17.27
2019-05-19T08:20:32.909Z,18.57
2019-05-19T08:23:02.379Z,18.17
2019-05-19T08:25:32.316Z,18.23
2019-05-19T08:28:08.591Z,17.87
2019-05-19T08:30:33.791Z,17.00
2019-05-19T08:33:03.410Z,16.87
2019-05-19T08:35:33.447Z,17.97
2019-05-19T08:38:02.946Z,18.53
2019-05-19T08:40:32.784Z,18.23
2019-05-19T08:43:02.257Z,16.67
2019-05-19T08:45:31.982Z,16.47
2019-05-19T08:48:01.801Z,17.63
2019-05-19T08:50:31.300Z,17.30
2019-05-19T08:53:00.795Z,16.55
2019-05-19T08:55:30.308Z,17.45
2019-05-19T08:57:59.792Z,17.82
2019-05-19T09:00:36.118Z,18.73
2019-05-19T09:03:03.314Z,18.90
2019-05-19T09:05:32.794Z,17.75
2019-05-19T09:08:02.409Z,17.70
2019-05-19T09:10:31.877Z,17.67
2019-05-19T09:13:01.771Z,17.10
2019-05-19T09:15:31.505Z,17.10
2019-05-19T09:18:01.369Z,17.25
2019-05-19T09:20:30.879Z,16.52
2019-05-19T09:23:00.816Z,15.50
2019-05-19T09:25:31.052Z,16.48
2019-05-19T09:28:00.841Z,17.85
2019-05-19T09:30:30.363Z,17.20
2019-05-19T09:32:59.834Z,17.82
2019-05-19T09:35:29.618Z,17.60
2019-05-19T09:37:59.423Z,17.77
2019-05-19T09:40:28.929Z,17.98
2019-05-19T09:42:58.870Z,17.17
2019-05-19T09:45:28.953Z,18.50
2019-05-19T09:47:59.128Z,17.37
2019-05-19T09:50:28.927Z,17.60
2019-05-19T09:52:58.715Z,18.85
2019-05-19T09:55:28.218Z,17.55
2019-05-19T09:57:57.706Z,18.37
2019-05-19T10:00:27.821Z,18.30
2019-05-19T10:02:57.575Z,16.07
2019-05-19T10:05:27.389Z,17.35
2019-05-19T10:07:57.437Z,17.98
2019-05-19T10:11:19.030Z,17.65
2019-05-19T10:13:48.785Z,17.42
2019-05-19T10:16:18.326Z,16.87
2019-05-19T10:18:48.063Z,15.10
2019-05-19T10:21:17.826Z,16.65
2019-05-19T10:23:47.317Z,15.93
2019-05-19T10:26:16.827Z,15.03
2019-05-19T10:28:46.302Z,14.83
2019-05-19T10:31:15.807Z,14.95
2019-05-19T10:33:45.602Z,15.68
2019-05-19T10:36:15.402Z,16.80
2019-05-19T10:38:45.175Z,15.25
2019-05-19T10:41:14.649Z,15.80
2019-05-19T10:43:44.150Z,15.05
2019-05-19T10:46:13.909Z,17.00
2019-05-19T10:48:43.441Z,14.70
2019-05-19T10:51:13.480Z,14.65
2019-05-19T10:53:42.960Z,13.70
2019-05-19T10:56:12.425Z,13.15
2019-05-19T10:58:42.751Z,13.83
2019-05-19T11:01:12.350Z,12.53
2019-05-19T11:03:42.370Z,12.95
2019-05-19T11:06:12.229Z,12.47
2019-05-19T11:08:42.057Z,13.13
2019-05-19T11:11:12.737Z,13.20
2019-05-19T11:13:42.596Z,12.40
2019-05-19T11:16:12.084Z,12.03
2019-05-19T11:18:41.586Z,10.70
2019-05-19T11:21:11.113Z,11.28
2019-05-19T11:23:40.921Z,10.98
2019-05-19T11:26:10.437Z,10.20
2019-05-19T11:28:40.259Z,10.05
2019-05-19T11:31:09.757Z,8.65
2019-05-19T11:33:39.239Z,9.83
2019-05-19T11:36:08.756Z,8.93
2019-05-19T11:38:38.244Z,9.28
2019-05-19T11:41:07.778Z,9.30
2019-05-19T11:43:37.677Z,8.65
2019-05-19T11:46:07.901Z,8.63
2019-05-19T11:48:38.715Z,7.80
2019-05-19T11:51:08.231Z,7.47
2019-05-19T11:53:38.590Z,6.97
2019-05-19T11:56:11.359Z,7.67
2019-05-19T11:58:40.520Z,7.80
2019-05-19T12:01:10.000Z,8.10
2019-05-19T12:03:39.470Z,7.70
2019-05-19T12:06:09.037Z,8.28
2019-05-19T12:08:38.493Z,7.83
2019-05-19T12:11:08.451Z,7.30
2019-05-19T12:13:40.564Z,8.20
2019-05-19T12:16:11.528Z,8.55
2019-05-19T12:18:42.597Z,8.23
2019-05-19T12:21:12.134Z,8.65
2019-05-19T12:23:41.957Z,8.20
2019-05-19T12:26:22.720Z,8.93
2019-05-19T12:28:42.943Z,8.05
2019-05-19T12:31:12.835Z,7.47
2019-05-19T12:33:51.659Z,8.80
2019-05-19T12:36:14.157Z,7.42
2019-05-19T12:38:43.906Z,7.65
2019-05-19T12:41:13.367Z,7.30
2019-05-19T12:43:42.906Z,7.92
2019-05-19T12:46:16.538Z,7.90
2019-05-19T12:48:43.795Z,7.85
2019-05-19T12:51:13.257Z,7.72
2019-05-19T12:53:42.769Z,7.62
2019-05-19T12:56:12.559Z,8.08
2019-05-19T12:58:42.026Z,7.72
2019-05-19T13:01:11.501Z,8.45
2019-05-19T13:03:41.012Z,8.50
2019-05-19T13:06:11.322Z,10.05
2019-05-19T13:08:41.085Z,10.60
2019-05-19T13:11:10.865Z,11.40
2019-05-19T13:13:43.230Z,11.00
2019-05-19T13:16:12.963Z,10.70
2019-05-19T13:18:42.442Z,11.97
2019-05-19T13:21:11.917Z,11.63
2019-05-19T13:23:41.720Z,15.10
2019-05-19T13:26:11.483Z,19.80
2019-05-19T13:28:40.998Z,22.23
2019-05-19T13:31:10.467Z,18.97
2019-05-19T13:33:39.954Z,15.87
2019-05-19T13:36:09.688Z,14.97
2019-05-19T13:38:39.410Z,12.77
2019-05-19T13:41:09.018Z,13.13
2019-05-19T13:46:55.016Z,9.63
2019-05-19T13:49:24.776Z,9.73
2019-05-19T13:51:54.196Z,10.00
2019-05-19T13:54:23.769Z,10.00
2019-05-19T13:56:53.237Z,10.00
2019-05-19T13:59:22.609Z,9.17
2019-05-19T14:01:52.022Z,10.17
2019-05-19T14:04:21.781Z,9.70
2019-05-19T14:06:51.182Z,9.47
2019-05-19T14:09:20.930Z,8.83
2019-05-19T14:11:50.839Z,8.93
2019-05-19T14:14:20.916Z,10.00
2019-05-19T14:16:50.408Z,10.50
2019-05-19T14:19:19.847Z,11.13
2019-05-19T14:21:49.879Z,10.87
2019-05-19T14:24:19.301Z,14.47
2019-05-19T14:26:49.785Z,13.50
2019-05-19T14:29:20.008Z,14.67
2019-05-19T14:31:49.466Z,14.50
2019-05-19T14:34:19.220Z,14.23
2019-05-19T14:36:48.703Z,14.77
2019-05-19T14:39:18.228Z,14.97
2019-05-19T14:41:52.221Z,15.33
2019-05-19T14:44:21.723Z,15.87
2019-05-19T14:46:51.242Z,16.27
2019-05-19T14:49:21.527Z,14.43
2019-05-19T14:51:51.048Z,15.97
2019-05-19T14:54:20.502Z,15.13
2019-05-19T14:56:50.063Z,16.20
2019-05-19T14:59:19.592Z,14.70
2019-05-19T15:01:49.421Z,15.00
2019-05-19T15:04:19.381Z,16.37
2019-05-19T15:06:50.072Z,14.57
2019-05-19T15:09:19.518Z,13.03
2019-05-19T15:11:49.532Z,13.23
2019-05-19T15:14:19.597Z,11.93
2019-05-19T15:16:49.345Z,12.90
2019-05-19T15:19:19.509Z,11.93
2019-05-19T15:21:49.350Z,12.17
2019-05-19T15:24:19.084Z,11.93
2019-05-19T15:26:51.226Z,11.80
2019-05-19T15:29:21.136Z,12.63
2019-05-19T15:31:50.673Z,12.53
2019-05-19T15:34:20.155Z,12.50
2019-05-19T15:36:49.605Z,12.07
2019-05-19T15:39:19.045Z,13.77
2019-05-19T15:41:48.892Z,13.10
2019-05-19T15:44:18.401Z,12.73
2019-05-19T15:46:47.851Z,13.13
2019-05-19T15:49:17.629Z,13.20
2019-05-19T15:52:01.060Z,13.60
2019-05-19T15:54:18.647Z,14.47
2019-05-19T15:56:48.117Z,16.03
2019-05-19T15:59:17.882Z,15.07
2019-05-19T16:01:47.972Z,15.47
2019-05-19T16:04:17.723Z,15.93
2019-05-19T16:06:47.189Z,17.63
2019-05-19T16:09:17.074Z,17.67
2019-05-19T16:11:47.176Z,17.60
2019-05-19T16:14:16.918Z,17.43
2019-05-19T16:16:48.497Z,19.57
2019-05-19T16:19:17.991Z,18.77
2019-05-19T16:21:47.757Z,19.47
2019-05-19T16:24:17.533Z,18.60
2019-05-19T16:26:47.348Z,18.37
2019-05-19T16:29:17.389Z,19.10
2019-05-19T16:31:46.883Z,17.90
2019-05-19T16:34:16.366Z,18.67
2019-05-19T16:36:45.968Z,19.00
2019-05-19T16:39:15.710Z,18.70
2019-05-19T16:41:45.813Z,18.97
2019-05-19T16:44:15.292Z,18.80
2019-05-19T16:46:44.846Z,19.57
2019-05-19T16:49:14.758Z,18.83
2019-05-19T16:51:44.510Z,19.07
2019-05-19T16:54:18.833Z,18.67
2019-05-19T16:56:48.639Z,18.37
2019-05-19T16:59:18.429Z,17.87
2019-05-19T17:01:48.477Z,17.87
2019-05-19T17:04:17.981Z,18.97
2019-05-19T17:06:49.385Z,19.20
2019-05-19T17:09:18.830Z,18.10
2019-05-19T17:11:48.413Z,18.93
2019-05-19T17:14:18.274Z,19.93
2019-05-19T17:16:47.765Z,19.77
2019-05-19T17:19:17.581Z,17.83
2019-05-19T17:21:47.058Z,18.13
2019-05-19T17:24:17.422Z,18.50
2019-05-19T17:26:46.902Z,20.30
2019-05-19T17:29:16.993Z,18.77
2019-05-19T17:31:48.852Z,18.57
2019-05-19T17:34:18.639Z,19.43
2019-05-19T17:36:48.068Z,20.90
2019-05-19T17:39:17.713Z,21.30
2019-05-19T17:41:47.722Z,21.60
2019-05-19T17:44:17.226Z,21.40
2019-05-19T17:46:46.679Z,20.33
2019-05-19T17:49:16.147Z,20.40
2019-05-19T17:51:45.880Z,19.93
2019-05-19T17:54:15.464Z,19.33
2019-05-19T17:56:46.919Z,21.03
2019-05-19T17:59:17.059Z,20.43
2019-05-19T18:01:47.015Z,18.87
2019-05-19T18:04:16.689Z,20.20
2019-05-19T18:06:47.949Z,20.37
2019-05-19T18:09:18.079Z,19.87
2019-05-19T18:11:48.073Z,19.83
2019-05-19T18:14:17.882Z,19.93
2019-05-19T18:16:47.343Z,18.23
2019-05-19T18:19:17.183Z,19.40
2019-05-19T18:21:46.914Z,18.93
2019-05-19T18:24:16.380Z,19.20
2019-05-19T18:26:45.907Z,18.47
2019-05-19T18:29:15.715Z,19.47
2019-05-19T18:31:45.455Z,19.27
2019-05-19T18:34:14.929Z,18.70
2019-05-19T18:36:44.822Z,19.17
2019-05-19T18:39:14.280Z,19.13
2019-05-19T18:41:43.779Z,17.77
2019-05-19T18:44:13.269Z,19.43
2019-05-19T18:46:43.317Z,17.37
2019-05-19T18:49:12.797Z,17.60
2019-05-19T18:51:42.313Z,17.30
2019-05-19T18:54:12.218Z,17.43
2019-05-19T18:56:41.722Z,17.67
2019-05-19T18:59:11.546Z,18.20
2019-05-19T19:01:41.349Z,18.30
2019-05-19T19:04:11.324Z,18.30
2019-05-19T19:06:40.800Z,18.27
2019-05-19T19:09:10.282Z,17.83
2019-05-19T19:11:40.369Z,19.03
2019-05-19T19:14:09.882Z,19.23
2019-05-19T19:16:39.429Z,18.10
2019-05-19T19:19:08.901Z,16.90
2019-05-19T19:21:38.709Z,18.03
2019-05-19T19:24:08.240Z,18.77
2019-05-19T19:26:37.726Z,18.80
2019-05-19T19:29:07.280Z,18.63
2019-05-19T19:31:47.989Z,18.57
2019-05-19T19:34:08.171Z,17.77
2019-05-19T19:36:37.960Z,18.07
2019-05-19T19:39:07.902Z,18.50
2019-05-19T19:41:37.688Z,19.30
2019-05-19T19:44:07.181Z,18.63
2019-05-19T19:46:36.705Z,19.80
2019-05-19T19:49:06.193Z,19.20
2019-05-19T19:51:35.597Z,18.00
2019-05-19T19:54:05.334Z,17.93
2019-05-19T19:56:35.081Z,18.40
2019-05-19T19:59:04.654Z,20.80
2019-05-19T20:01:34.135Z,20.47
2019-05-19T20:04:03.695Z,20.80
2019-05-19T20:06:33.426Z,19.77
2019-05-19T20:09:03.478Z,20.10
2019-05-19T20:11:33.221Z,18.63
2019-05-19T20:14:03.025Z,20.17
2019-05-19T20:16:32.929Z,21.60
2019-05-19T20:19:02.607Z,21.83
2019-05-19T20:21:32.323Z,20.93
2019-05-19T20:24:02.082Z,19.93
2019-05-19T20:26:31.630Z,19.57
2019-05-19T20:29:01.020Z,21.10
2019-05-19T20:31:31.502Z,20.30
2019-05-19T20:34:01.004Z,20.33
2019-05-19T20:36:30.527Z,21.33
2019-05-19T20:39:00.026Z,21.17
2019-05-19T20:41:29.504Z,20.80
2019-05-19T20:43:59.232Z,20.97
2019-05-19T20:46:28.741Z,22.00
2019-05-19T20:48:58.224Z,23.50
2019-05-19T20:51:27.735Z,22.40
2019-05-19T20:53:57.533Z,24.10
2019-05-19T20:56:27.391Z,23.73
2019-05-19T20:58:57.091Z,23.10
2019-05-19T21:01:26.595Z,24.07
2019-05-19T21:03:56.327Z,24.93
2019-05-19T21:06:25.828Z,25.13
2019-05-19T21:08:55.545Z,23.03
2019-05-19T21:11:25.349Z,25.23
2019-05-19T21:13:55.129Z,22.53
2019-05-19T21:16:24.943Z,23.60
2019-05-19T21:18:54.990Z,24.23
2019-05-19T21:21:24.978Z,23.53
2019-05-19T21:23:54.471Z,23.43
2019-05-19T21:26:24.237Z,24.17
2019-05-19T21:28:53.687Z,25.33
2019-05-19T21:31:23.146Z,24.27
2019-05-19T21:33:52.640Z,24.13
2019-05-19T21:36:22.498Z,23.73
2019-05-19T21:38:52.058Z,24.20
2019-05-19T21:41:21.529Z,25.03
2019-05-19T21:43:51.344Z,23.53
2019-05-19T21:46:21.106Z,23.07
2019-05-19T21:48:50.860Z,25.33
2019-05-19T21:51:21.001Z,23.87
2019-05-19T21:53:50.486Z,23.83
2019-05-19T21:56:20.283Z,23.37
2019-05-19T21:58:50.054Z,22.87
2019-05-19T22:01:23.097Z,23.73
2019-05-19T22:03:50.658Z,23.87
2019-05-19T22:06:22.075Z,25.23
2019-05-19T22:08:51.567Z,25.97
2019-05-19T22:11:21.072Z,27.93
2019-05-19T22:13:50.603Z,25.67
2019-05-19T22:16:20.410Z,26.37
2019-05-19T22:18:49.880Z,27.03
2019-05-19T22:21:19.693Z,24.93
2019-05-19T22:23:49.468Z,24.80
2019-05-19T22:26:18.960Z,26.03
2019-05-19T22:28:48.454Z,24.03
2019-05-19T22:31:17.946Z,23.53
2019-05-19T22:33:47.466Z,23.87
2019-05-19T22:36:16.917Z,21.50
2019-05-19T22:38:46.415Z,22.10
2019-05-19T22:41:15.872Z,24.93
2019-05-19T22:43:45.355Z,24.30
2019-05-19T22:46:14.915Z,21.97
2019-05-19T22:48:44.467Z,22.90
2019-05-19T22:51:14.557Z,25.17
2019-05-19T22:53:44.059Z,23.40
2019-05-19T22:56:13.688Z,22.13
2019-05-19T22:58:43.577Z,21.47
2019-05-19T23:01:13.341Z,24.87
2019-05-19T23:03:42.812Z,25.33
2019-05-19T23:06:12.619Z,24.60
2019-05-19T23:08:42.128Z,26.70
2019-05-19T23:11:11.666Z,28.33
2019-05-19T23:13:41.128Z,26.47
2019-05-19T23:16:10.719Z,24.97
2019-05-19T23:18:40.430Z,24.67
2019-05-19T23:21:10.113Z,25.80
2019-05-19T23:23:39.633Z,27.40
2019-05-19T23:26:09.394Z,29.47
2019-05-19T23:28:38.833Z,27.43
2019-05-19T23:31:08.237Z,27.50
2019-05-19T23:33:37.969Z,25.40
2019-05-19T23:36:07.471Z,27.47
2019-05-19T23:38:36.985Z,26.60
2019-05-19T23:41:06.501Z,26.10
2019-05-19T23:43:36.242Z,32.80
2019-05-19T23:46:06.021Z,30.10
2019-05-19T23:48:35.481Z,30.40
2019-05-19T23:51:05.401Z,31.33
2019-05-19T23:53:35.164Z,28.03
2019-05-19T23:56:05.012Z,26.60
2019-05-19T23:58:34.469Z,27.27
